createdAt,value
2018-12-15T00:00:16.134Z,2.36
2018-12-15T00:01:16.117Z,2.2
2018-12-15T00:02:16.096Z,2.34
2018-12-15T00:03:16.080Z,2.28
2018-12-15T00:04:16.065Z,2.42
2018-12-15T00:05:16.048Z,2.35
2018-12-15T00:06:16.034Z,2.39
2018-12-15T00:07:16.016Z,2.42
2018-12-15T00:08:15.999Z,2.35
2018-12-15T00:09:15.983Z,2.41
2018-12-15T00:10:15.971Z,2.36
2018-12-15T00:11:15.952Z,2.38
2018-12-15T00:12:15.936Z,2.35
2018-12-15T00:13:15.923Z,2.27
2018-12-15T00:14:15.904Z,2.35
2018-12-15T00:15:15.891Z,2.21
2018-12-15T00:16:15.648Z,2.25
2018-12-15T00:17:15.863Z,2.17
2018-12-15T00:18:15.843Z,2.16
2018-12-15T00:19:15.826Z,2.12
2018-12-15T00:20:15.810Z,2.09
2018-12-15T00:21:15.800Z,2.03
2018-12-15T00:22:15.777Z,2.09
2018-12-15T00:23:15.762Z,2.07
2018-12-15T00:24:15.744Z,2.07
2018-12-15T00:25:15.727Z,2.06
2018-12-15T00:26:15.724Z,2.05
2018-12-15T00:27:15.699Z,2.06
2018-12-15T00:28:15.683Z,2.09
2018-12-15T00:29:15.674Z,2.06
2018-12-15T00:30:17.196Z,2.02
2018-12-15T00:31:15.636Z,2.03
2018-12-15T00:32:15.616Z,2.14
2018-12-15T00:33:15.602Z,2.1
2018-12-15T00:34:15.586Z,2.07
2018-12-15T00:35:15.568Z,2.06
2018-12-15T00:36:15.549Z,2.18
2018-12-15T00:37:15.545Z,2.12
2018-12-15T00:38:15.518Z,2.16
2018-12-15T00:39:15.503Z,2.27
2018-12-15T00:40:15.488Z,2.3
2018-12-15T00:41:15.492Z,2.38
2018-12-15T00:42:15.456Z,2.38
2018-12-15T00:43:15.448Z,2.36
2018-12-15T00:44:15.424Z,2.38
2018-12-15T00:45:15.405Z,2.36
2018-12-15T00:46:15.446Z,2.41
2018-12-15T00:47:18.641Z,2.39
2018-12-15T00:48:15.359Z,2.41
2018-12-15T00:49:15.343Z,2.46
2018-12-15T00:50:15.326Z,2.53
2018-12-15T00:51:15.317Z,2.45
2018-12-15T00:52:15.304Z,2.53
2018-12-15T00:53:15.280Z,2.57
2018-12-15T00:54:15.263Z,2.59
2018-12-15T00:55:15.251Z,2.53
2018-12-15T00:56:15.232Z,2.52
2018-12-15T00:57:15.217Z,2.54
2018-12-15T00:58:16.774Z,2.49
2018-12-15T00:59:15.194Z,2.52
2018-12-15T01:00:15.171Z,2.39
2018-12-15T01:01:15.151Z,2.45
2018-12-15T01:02:15.136Z,2.41
2018-12-15T01:03:15.117Z,2.49
2018-12-15T01:04:15.103Z,2.42
2018-12-15T01:05:15.090Z,2.54
2018-12-15T01:06:15.072Z,2.53
2018-12-15T01:07:15.053Z,2.53
2018-12-15T01:08:15.039Z,2.59
2018-12-15T01:09:15.028Z,2.53
2018-12-15T01:10:15.013Z,2.52
2018-12-15T01:11:14.993Z,2.53
2018-12-15T01:12:14.991Z,2.53
2018-12-15T01:13:14.958Z,2.54
2018-12-15T01:14:14.941Z,2.52
2018-12-15T01:15:14.926Z,2.36
2018-12-15T01:16:14.910Z,2.38
2018-12-15T01:17:20.402Z,2.25
2018-12-15T01:18:14.887Z,2.35
2018-12-15T01:19:14.863Z,2.28
2018-12-15T01:20:14.858Z,2.38
2018-12-15T01:21:14.829Z,2.34
2018-12-15T01:22:14.815Z,2.3
2018-12-15T01:23:14.799Z,2.23
2018-12-15T01:24:14.785Z,2.24
2018-12-15T01:25:14.765Z,2.27
2018-12-15T01:26:14.750Z,2.17
2018-12-15T01:27:14.740Z,2.17
2018-12-15T01:28:14.719Z,2.21
2018-12-15T01:29:14.702Z,2.25
2018-12-15T01:30:14.685Z,2.16
2018-12-15T01:31:14.668Z,2.17
2018-12-15T01:32:14.652Z,2.18
2018-12-15T01:33:14.647Z,2.16
2018-12-15T01:34:14.621Z,2.18
2018-12-15T01:35:14.605Z,2.21
2018-12-15T01:36:14.596Z,2.23
2018-12-15T01:37:14.571Z,2.25
2018-12-15T01:38:14.557Z,2.23
2018-12-15T01:39:14.546Z,2.16
2018-12-15T01:40:14.524Z,2.18
2018-12-15T01:41:14.512Z,2.1
2018-12-15T01:42:14.491Z,2.16
2018-12-15T01:43:14.231Z,2.12
2018-12-15T01:44:14.460Z,2.16
2018-12-15T01:45:14.444Z,2.16
2018-12-15T01:46:14.430Z,2.14
2018-12-15T01:47:14.410Z,2.12
2018-12-15T01:48:14.395Z,2.09
2018-12-15T01:49:14.383Z,2.14
2018-12-15T01:50:14.371Z,2.14
2018-12-15T01:51:14.349Z,2.07
2018-12-15T01:52:14.331Z,2.03
2018-12-15T01:53:14.314Z,1.91
2018-12-15T01:54:14.298Z,1.98
2018-12-15T01:55:14.283Z,1.98
2018-12-15T01:56:14.265Z,2.05
2018-12-15T01:57:14.249Z,2.09
2018-12-15T01:58:14.231Z,2.17
2018-12-15T01:59:14.214Z,2.14
2018-12-15T02:00:14.201Z,2.16
2018-12-15T02:01:14.186Z,2.25
2018-12-15T02:02:14.169Z,2.18
2018-12-15T02:03:14.151Z,2.23
2018-12-15T02:04:14.133Z,2.21
2018-12-15T02:05:14.118Z,2.25
2018-12-15T02:06:14.107Z,2.3
2018-12-15T02:07:14.088Z,2.21
2018-12-15T02:08:14.070Z,2.21
2018-12-15T02:09:14.054Z,2.31
2018-12-15T02:10:14.040Z,2.23
2018-12-15T02:11:14.022Z,2.27
2018-12-15T02:12:14.006Z,2.23
2018-12-15T02:13:13.991Z,2.23
2018-12-15T02:14:13.978Z,2.17
2018-12-15T02:15:13.961Z,2.23
2018-12-15T02:16:13.944Z,2.18
2018-12-15T02:17:14.001Z,2.23
2018-12-15T02:18:13.914Z,2.18
2018-12-15T02:19:13.892Z,2.16
2018-12-15T02:20:13.878Z,2.23
2018-12-15T02:21:13.860Z,2.18
2018-12-15T02:22:13.843Z,2.21
2018-12-15T02:23:13.827Z,2.21
2018-12-15T02:24:13.815Z,2.1
2018-12-15T02:25:13.793Z,2.14
2018-12-15T02:26:13.778Z,2.07
2018-12-15T02:27:13.761Z,2.05
2018-12-15T02:28:13.747Z,1.99
2018-12-15T02:29:13.732Z,1.93
2018-12-15T02:30:13.727Z,1.91
2018-12-15T02:31:13.704Z,2
2018-12-15T02:32:13.697Z,1.91
2018-12-15T02:33:13.664Z,2.06
2018-12-15T02:34:13.648Z,2.02
2018-12-15T02:35:13.635Z,1.98
2018-12-15T02:36:13.618Z,2.06
2018-12-15T02:37:13.605Z,2.05
2018-12-15T02:38:13.596Z,2.07
2018-12-15T02:39:13.571Z,2.07
2018-12-15T02:40:13.555Z,2.02
2018-12-15T02:41:14.921Z,2.09
2018-12-15T02:42:13.534Z,2.05
2018-12-15T02:43:13.531Z,1.93
2018-12-15T02:44:13.488Z,2
2018-12-15T02:45:13.471Z,1.9
2018-12-15T02:46:13.457Z,1.91
2018-12-15T02:47:13.439Z,1.9
2018-12-15T02:48:13.422Z,1.9
2018-12-15T02:49:13.410Z,1.9
2018-12-15T02:50:14.410Z,1.9
2018-12-15T02:51:13.377Z,1.84
2018-12-15T02:52:13.358Z,1.8
2018-12-15T02:53:13.343Z,1.86
2018-12-15T02:54:13.335Z,1.93
2018-12-15T02:55:13.346Z,1.91
2018-12-15T02:56:13.302Z,2.02
2018-12-15T02:57:13.284Z,1.91
2018-12-15T02:58:13.271Z,1.87
2018-12-15T02:59:13.245Z,1.83
2018-12-15T03:00:12.745Z,1.83
2018-12-15T03:01:13.214Z,1.83
2018-12-15T03:02:13.197Z,1.8
2018-12-15T03:03:13.185Z,1.81
2018-12-15T03:04:13.165Z,1.81
2018-12-15T03:05:13.144Z,1.88
2018-12-15T03:06:13.139Z,1.8
2018-12-15T03:07:13.128Z,1.79
2018-12-15T03:08:13.102Z,1.81
2018-12-15T03:09:13.084Z,1.77
2018-12-15T03:10:13.072Z,1.79
2018-12-15T03:11:13.050Z,1.79
2018-12-15T03:12:13.031Z,1.84
2018-12-15T03:13:13.018Z,1.93
2018-12-15T03:14:13.001Z,1.95
2018-12-15T03:15:12.988Z,1.9
2018-12-15T03:16:12.978Z,1.91
2018-12-15T03:17:12.967Z,2.03
2018-12-15T03:18:12.932Z,2.05
2018-12-15T03:19:12.918Z,2.09
2018-12-15T03:20:12.906Z,2.17
2018-12-15T03:21:12.892Z,2.14
2018-12-15T03:22:12.875Z,2.09
2018-12-15T03:23:12.852Z,2.07
2018-12-15T03:24:12.869Z,2.17
2018-12-15T03:25:12.819Z,2.05
2018-12-15T03:26:12.803Z,2.05
2018-12-15T03:27:12.799Z,1.99
2018-12-15T03:28:12.773Z,2.09
2018-12-15T03:29:12.757Z,2.07
2018-12-15T03:30:12.748Z,2.06
2018-12-15T03:31:12.738Z,2.06
2018-12-15T03:32:12.483Z,2.05
2018-12-15T03:33:12.694Z,1.93
2018-12-15T03:34:12.674Z,1.99
2018-12-15T03:35:12.668Z,2.02
2018-12-15T03:36:12.643Z,1.99
2018-12-15T03:37:12.625Z,1.95
2018-12-15T03:38:12.639Z,2.09
2018-12-15T03:39:12.603Z,2.06
2018-12-15T03:40:12.578Z,2.14
2018-12-15T03:41:12.559Z,1.99
2018-12-15T03:42:12.550Z,2.09
2018-12-15T03:43:12.531Z,2.09
2018-12-15T03:44:12.526Z,2.03
2018-12-15T03:45:12.511Z,2.02
2018-12-15T03:46:12.486Z,2.03
2018-12-15T03:47:12.471Z,2.03
2018-12-15T03:48:12.453Z,2.06
2018-12-15T03:49:12.441Z,2.06
2018-12-15T03:50:12.435Z,1.98
2018-12-15T03:51:12.403Z,1.98
2018-12-15T03:52:12.390Z,1.93
2018-12-15T03:53:12.383Z,1.8
2018-12-15T03:54:12.355Z,1.83
2018-12-15T03:55:12.338Z,1.83
2018-12-15T03:56:12.322Z,1.88
2018-12-15T03:57:12.069Z,1.91
2018-12-15T03:58:12.290Z,1.91
2018-12-15T03:59:12.275Z,1.87
2018-12-15T04:00:12.261Z,1.91
2018-12-15T04:01:12.242Z,1.9
2018-12-15T04:02:12.525Z,1.91
2018-12-15T04:03:12.211Z,1.91
2018-12-15T04:04:12.194Z,1.91
2018-12-15T04:05:12.179Z,1.87
2018-12-15T04:06:12.161Z,1.88
2018-12-15T04:07:12.151Z,1.86
2018-12-15T04:08:12.149Z,1.87
2018-12-15T04:09:12.112Z,1.81
2018-12-15T04:10:12.095Z,1.88
2018-12-15T04:11:12.086Z,1.86
2018-12-15T04:12:12.064Z,1.86
2018-12-15T04:13:12.059Z,1.91
2018-12-15T04:14:12.033Z,1.91
2018-12-15T04:15:12.019Z,1.9
2018-12-15T04:16:12.000Z,1.88
2018-12-15T04:17:11.985Z,1.8
2018-12-15T04:18:11.965Z,1.79
2018-12-15T04:19:11.963Z,1.76
2018-12-15T04:20:11.705Z,1.79
2018-12-15T04:21:11.930Z,1.8
2018-12-15T04:22:11.927Z,1.81
2018-12-15T04:23:11.886Z,1.84
2018-12-15T04:24:11.868Z,1.93
2018-12-15T04:25:11.856Z,1.91
2018-12-15T04:26:11.838Z,2.1
2018-12-15T04:27:11.574Z,2.07
2018-12-15T04:28:11.810Z,2.1
2018-12-15T04:29:11.789Z,2.14
2018-12-15T04:30:11.768Z,2.1
2018-12-15T04:31:11.755Z,2.12
2018-12-15T04:32:11.740Z,2.24
2018-12-15T04:33:11.723Z,2.17
2018-12-15T04:34:11.708Z,2.3
2018-12-15T04:35:11.689Z,2.27
2018-12-15T04:36:11.680Z,2.18
2018-12-15T04:37:11.666Z,2.2
2018-12-15T04:38:11.651Z,2.07
2018-12-15T04:39:11.626Z,2.1
2018-12-15T04:40:11.606Z,2.07
2018-12-15T04:41:11.592Z,2.03
2018-12-15T04:42:11.573Z,2.05
2018-12-15T04:43:11.562Z,2.12
2018-12-15T04:44:11.543Z,2.07
2018-12-15T04:45:11.529Z,2.07
2018-12-15T04:46:11.520Z,2.1
2018-12-15T04:47:11.498Z,2.03
2018-12-15T04:48:16.029Z,1.93
2018-12-15T04:49:11.459Z,1.91
2018-12-15T04:50:11.446Z,1.91
2018-12-15T04:51:11.482Z,1.91
2018-12-15T04:52:11.412Z,1.84
2018-12-15T04:53:11.404Z,1.84
2018-12-15T04:54:11.387Z,1.91
2018-12-15T04:55:11.376Z,1.8
2018-12-15T04:56:11.359Z,1.84
2018-12-15T04:57:11.330Z,1.76
2018-12-15T04:58:11.313Z,1.81
2018-12-15T04:59:11.302Z,1.81
2018-12-15T05:00:11.290Z,1.81
2018-12-15T05:01:11.270Z,1.83
2018-12-15T05:02:11.008Z,1.8
2018-12-15T05:03:11.233Z,1.86
2018-12-15T05:04:11.225Z,1.8
2018-12-15T05:05:11.211Z,1.8
2018-12-15T05:06:11.188Z,1.81
2018-12-15T05:07:11.172Z,1.83
2018-12-15T05:08:11.157Z,1.81
2018-12-15T05:09:11.142Z,1.86
2018-12-15T05:10:11.123Z,1.9
2018-12-15T05:11:11.123Z,1.88
2018-12-15T05:12:11.089Z,1.8
2018-12-15T05:13:11.080Z,1.84
2018-12-15T05:14:11.056Z,1.8
2018-12-15T05:15:11.037Z,1.73
2018-12-15T05:16:11.024Z,1.8
2018-12-15T05:17:11.017Z,1.79
2018-12-15T05:18:15.106Z,1.76
2018-12-15T05:19:10.987Z,1.79
2018-12-15T05:20:12.261Z,1.7
2018-12-15T05:21:10.944Z,1.73
2018-12-15T05:22:10.940Z,1.81
2018-12-15T05:23:10.914Z,1.76
2018-12-15T05:24:10.898Z,1.72
2018-12-15T05:25:10.878Z,1.62
2018-12-15T05:26:10.862Z,1.63
2018-12-15T05:27:10.847Z,1.58
2018-12-15T05:28:10.829Z,1.6
2018-12-15T05:29:10.811Z,1.59
2018-12-15T05:30:10.803Z,1.63
2018-12-15T05:31:10.798Z,1.47
2018-12-15T05:32:10.765Z,1.58
2018-12-15T05:33:10.751Z,1.47
2018-12-15T05:34:10.733Z,1.45
2018-12-15T05:35:10.721Z,1.52
2018-12-15T05:36:10.702Z,1.52
2018-12-15T05:37:10.686Z,1.44
2018-12-15T05:38:10.670Z,1.45
2018-12-15T05:39:10.649Z,1.45
2018-12-15T05:40:10.631Z,1.52
2018-12-15T05:41:10.618Z,1.36
2018-12-15T05:42:10.599Z,1.41
2018-12-15T05:43:10.634Z,1.42
2018-12-15T05:44:10.569Z,1.41
2018-12-15T05:45:10.555Z,1.44
2018-12-15T05:46:10.536Z,1.36
2018-12-15T05:47:10.518Z,1.4
2018-12-15T05:48:10.508Z,1.41
2018-12-15T05:49:10.486Z,1.41
2018-12-15T05:50:10.474Z,1.42
2018-12-15T05:51:10.448Z,1.4
2018-12-15T05:52:10.439Z,1.36
2018-12-15T05:53:10.419Z,1.45
2018-12-15T05:54:10.402Z,1.4
2018-12-15T05:55:10.392Z,1.4
2018-12-15T05:56:10.366Z,1.4
2018-12-15T05:57:10.352Z,1.45
2018-12-15T05:58:10.333Z,1.45
2018-12-15T05:59:10.319Z,1.42
2018-12-15T06:00:10.305Z,1.48
2018-12-15T06:01:10.286Z,1.54
2018-12-15T06:02:10.274Z,1.55
2018-12-15T06:03:10.253Z,1.48
2018-12-15T06:04:10.236Z,1.58
2018-12-15T06:05:10.224Z,1.45
2018-12-15T06:06:10.208Z,1.4
2018-12-15T06:07:10.188Z,1.44
2018-12-15T06:08:10.170Z,1.37
2018-12-15T06:09:10.152Z,1.44
2018-12-15T06:10:10.136Z,1.37
2018-12-15T06:11:10.125Z,1.34
2018-12-15T06:12:10.120Z,1.41
2018-12-15T06:13:10.090Z,1.4
2018-12-15T06:14:10.075Z,1.42
2018-12-15T06:15:10.055Z,1.4
2018-12-15T06:16:10.038Z,1.44
2018-12-15T06:17:10.018Z,1.47
2018-12-15T06:18:10.006Z,1.42
2018-12-15T06:19:09.987Z,1.41
2018-12-15T06:20:09.987Z,1.48
2018-12-15T06:21:09.951Z,1.52
2018-12-15T06:22:09.943Z,1.5
2018-12-15T06:23:09.921Z,1.44
2018-12-15T06:24:09.904Z,1.48
2018-12-15T06:25:09.908Z,1.42
2018-12-15T06:26:09.869Z,1.47
2018-12-15T06:27:09.856Z,1.45
2018-12-15T06:28:09.839Z,1.41
2018-12-15T06:29:09.821Z,1.41
2018-12-15T06:30:09.812Z,1.44
2018-12-15T06:31:09.786Z,1.41
2018-12-15T06:32:09.770Z,1.34
2018-12-15T06:33:09.759Z,1.4
2018-12-15T06:34:09.739Z,1.37
2018-12-15T06:35:09.720Z,1.34
2018-12-15T06:36:09.705Z,1.3
2018-12-15T06:37:09.768Z,1.45
2018-12-15T06:38:09.671Z,1.32
2018-12-15T06:39:09.655Z,1.41
2018-12-15T06:40:09.647Z,1.26
2018-12-15T06:41:09.628Z,1.36
2018-12-15T06:42:09.609Z,1.34
2018-12-15T06:43:09.592Z,1.34
2018-12-15T06:44:09.584Z,1.36
2018-12-15T06:45:09.572Z,1.34
2018-12-15T06:46:09.541Z,1.36
2018-12-15T06:47:09.558Z,1.36
2018-12-15T06:48:09.508Z,1.42
2018-12-15T06:49:09.487Z,1.37
2018-12-15T06:50:09.473Z,1.5
2018-12-15T06:51:09.464Z,1.44
2018-12-15T06:52:09.442Z,1.41
2018-12-15T06:53:09.418Z,1.44
2018-12-15T06:54:09.409Z,1.41
2018-12-15T06:55:09.392Z,1.41
2018-12-15T06:56:09.371Z,1.45
2018-12-15T06:57:10.395Z,1.5
2018-12-15T06:58:09.348Z,1.55
2018-12-15T06:59:09.327Z,1.52
2018-12-15T07:00:09.306Z,1.44
2018-12-15T07:01:09.290Z,1.58
2018-12-15T07:02:09.271Z,1.47
2018-12-15T07:03:09.257Z,1.54
2018-12-15T07:04:09.242Z,1.51
2018-12-15T07:05:09.228Z,1.59
2018-12-15T07:06:09.218Z,1.59
2018-12-15T07:07:09.193Z,1.52
2018-12-15T07:08:09.176Z,1.6
2018-12-15T07:09:08.923Z,1.62
2018-12-15T07:10:09.143Z,1.59
2018-12-15T07:11:09.122Z,1.62
2018-12-15T07:12:09.115Z,1.6
2018-12-15T07:13:09.091Z,1.62
2018-12-15T07:14:09.089Z,1.66
2018-12-15T07:15:09.058Z,1.73
2018-12-15T07:16:09.048Z,1.73
2018-12-15T07:17:09.028Z,1.7
2018-12-15T07:18:09.014Z,1.66
2018-12-15T07:19:08.996Z,1.81
2018-12-15T07:20:08.977Z,1.73
2018-12-15T07:21:08.960Z,1.79
2018-12-15T07:22:08.944Z,1.81
2018-12-15T07:23:08.937Z,1.77
2018-12-15T07:24:08.943Z,1.77
2018-12-15T07:25:09.529Z,1.72
2018-12-15T07:26:08.877Z,1.72
2018-12-15T07:27:08.859Z,1.68
2018-12-15T07:28:08.850Z,1.73
2018-12-15T07:29:08.857Z,1.69
2018-12-15T07:30:08.811Z,1.73
2018-12-15T07:31:08.794Z,1.72
2018-12-15T07:32:08.781Z,1.77
2018-12-15T07:33:08.762Z,1.81
2018-12-15T07:34:08.748Z,1.77
2018-12-15T07:35:08.761Z,1.76
2018-12-15T07:36:08.713Z,1.8
2018-12-15T07:37:08.695Z,1.72
2018-12-15T07:38:08.692Z,1.81
2018-12-15T07:39:08.665Z,1.69
2018-12-15T07:40:08.648Z,1.77
2018-12-15T07:41:08.640Z,1.77
2018-12-15T07:42:08.619Z,1.79
2018-12-15T07:43:08.596Z,1.79
2018-12-15T07:44:08.586Z,1.8
2018-12-15T07:45:08.566Z,1.83
2018-12-15T07:46:08.561Z,1.73
2018-12-15T07:47:08.538Z,1.77
2018-12-15T07:48:08.518Z,1.81
2018-12-15T07:49:08.502Z,1.79
2018-12-15T07:50:08.489Z,1.8
2018-12-15T07:51:09.192Z,1.83
2018-12-15T07:52:08.450Z,1.81
2018-12-15T07:53:08.438Z,1.86
2018-12-15T07:54:08.417Z,1.81
2018-12-15T07:55:08.401Z,1.76
2018-12-15T07:56:08.388Z,1.83
2018-12-15T07:57:08.370Z,1.8
2018-12-15T07:58:08.361Z,1.9
2018-12-15T07:59:08.337Z,1.87
2018-12-15T08:00:08.340Z,1.87
2018-12-15T08:01:08.305Z,1.93
2018-12-15T08:02:08.283Z,1.98
2018-12-15T08:03:08.276Z,1.98
2018-12-15T08:04:08.259Z,2.03
2018-12-15T08:05:08.237Z,2.03
2018-12-15T08:06:08.221Z,2.07
2018-12-15T08:07:07.962Z,2.07
2018-12-15T08:08:08.193Z,2.05
2018-12-15T08:09:08.172Z,2.14
2018-12-15T08:10:08.164Z,2.17
2018-12-15T08:11:08.140Z,2.14
2018-12-15T08:12:08.127Z,2.27
2018-12-15T08:13:08.109Z,2.28
2018-12-15T08:14:08.092Z,2.2
2018-12-15T08:15:08.077Z,2.27
2018-12-15T08:16:08.062Z,2.3
2018-12-15T08:17:08.043Z,2.34
2018-12-15T08:18:08.028Z,2.2
2018-12-15T08:19:08.369Z,2.2
2018-12-15T08:20:07.998Z,2.25
2018-12-15T08:21:07.981Z,2.31
2018-12-15T08:22:08.001Z,2.27
2018-12-15T08:23:07.949Z,2.35
2018-12-15T08:24:07.933Z,2.34
2018-12-15T08:25:07.921Z,2.36
2018-12-15T08:26:07.898Z,2.41
2018-12-15T08:27:07.888Z,2.28
2018-12-15T08:28:07.871Z,2.35
2018-12-15T08:29:07.851Z,2.31
2018-12-15T08:30:07.837Z,2.38
2018-12-15T08:31:07.823Z,2.36
2018-12-15T08:32:07.815Z,2.39
2018-12-15T08:33:07.791Z,2.35
2018-12-15T08:34:07.779Z,2.21
2018-12-15T08:35:07.806Z,2.28
2018-12-15T08:36:07.741Z,2.31
2018-12-15T08:37:07.725Z,2.35
2018-12-15T08:38:07.713Z,2.41
2018-12-15T08:39:07.692Z,2.39
2018-12-15T08:40:07.681Z,2.42
2018-12-15T08:41:07.662Z,2.46
2018-12-15T08:42:07.652Z,2.41
2018-12-15T08:43:07.633Z,2.46
2018-12-15T08:44:07.614Z,2.36
2018-12-15T08:45:07.602Z,2.45
2018-12-15T08:46:07.583Z,2.43
2018-12-15T08:47:07.570Z,2.38
2018-12-15T08:48:07.554Z,2.36
2018-12-15T08:49:09.547Z,2.38
2018-12-15T08:50:07.519Z,2.41
2018-12-15T08:51:07.506Z,2.49
2018-12-15T08:52:07.490Z,2.38
2018-12-15T08:53:07.472Z,2.39
2018-12-15T08:54:07.455Z,2.49
2018-12-15T08:55:07.440Z,2.52
2018-12-15T08:56:07.422Z,2.53
2018-12-15T08:57:07.406Z,2.6
2018-12-15T08:58:07.396Z,2.69
2018-12-15T08:59:07.378Z,2.71
2018-12-15T09:00:07.398Z,2.72
2018-12-15T09:01:07.348Z,2.75
2018-12-15T09:02:07.333Z,2.67
2018-12-15T09:03:07.320Z,2.72
2018-12-15T09:04:07.298Z,2.66
2018-12-15T09:05:07.283Z,2.74
2018-12-15T09:06:07.268Z,2.71
2018-12-15T09:07:07.253Z,2.82
2018-12-15T09:08:07.238Z,2.87
2018-12-15T09:09:07.224Z,2.79
2018-12-15T09:10:07.261Z,2.9
2018-12-15T09:11:07.194Z,2.87
2018-12-15T09:12:07.171Z,2.95
2018-12-15T09:13:07.245Z,3.08
2018-12-15T09:14:07.141Z,3.06
2018-12-15T09:15:07.135Z,3.1
2018-12-15T09:16:07.110Z,3.05
2018-12-15T09:17:07.108Z,3.02
2018-12-15T09:18:07.082Z,2.95
2018-12-15T09:19:13.645Z,3.05
2018-12-15T09:20:07.052Z,3.06
2018-12-15T09:21:07.040Z,3.13
2018-12-15T09:22:13.997Z,3.08
2018-12-15T09:23:07.009Z,3.26
2018-12-15T09:24:06.987Z,3.28
2018-12-15T09:25:06.979Z,3.43
2018-12-15T09:26:06.954Z,3.26
2018-12-15T09:27:06.944Z,3.31
2018-12-15T09:28:06.929Z,3.31
2018-12-15T09:29:06.918Z,3.24
2018-12-15T09:30:06.897Z,3.26
2018-12-15T09:31:06.886Z,3.21
2018-12-15T09:32:06.865Z,3.28
2018-12-15T09:33:06.852Z,3.29
2018-12-15T09:34:06.840Z,3.26
2018-12-15T09:35:06.825Z,3.2
2018-12-15T09:36:06.810Z,3.29
2018-12-15T09:37:06.796Z,3.2
2018-12-15T09:38:06.783Z,3.29
2018-12-15T09:39:06.762Z,3.21
2018-12-15T09:40:06.741Z,3.17
2018-12-15T09:41:06.729Z,3.2
2018-12-15T09:42:06.716Z,3.2
2018-12-15T09:43:06.704Z,3.32
2018-12-15T09:44:07.483Z,3.29
2018-12-15T09:45:06.678Z,3.31
2018-12-15T09:46:06.753Z,3.42
2018-12-15T09:47:06.636Z,3.36
2018-12-15T09:48:06.633Z,3.48
2018-12-15T09:49:06.676Z,3.5
2018-12-15T09:50:06.597Z,3.48
2018-12-15T09:51:06.577Z,3.48
2018-12-15T09:52:06.319Z,3.55
2018-12-15T09:53:06.545Z,3.54
2018-12-15T09:54:06.534Z,3.6
2018-12-15T09:55:06.517Z,3.48
2018-12-15T09:56:06.499Z,3.58
2018-12-15T09:57:06.487Z,3.66
2018-12-15T09:58:06.471Z,3.6
2018-12-15T09:59:06.454Z,3.65
2018-12-15T10:00:06.443Z,3.7
2018-12-15T10:01:06.427Z,3.68
2018-12-15T10:02:06.481Z,3.72
2018-12-15T10:03:06.400Z,3.69
2018-12-15T10:04:06.391Z,3.72
2018-12-15T10:05:06.368Z,3.73
2018-12-15T10:06:06.349Z,3.75
2018-12-15T10:07:06.335Z,3.79
2018-12-15T10:08:06.323Z,3.78
2018-12-15T10:09:06.304Z,3.72
2018-12-15T10:10:06.294Z,3.79
2018-12-15T10:11:06.275Z,3.68
2018-12-15T10:12:06.260Z,3.79
2018-12-15T10:13:06.244Z,3.78
2018-12-15T10:14:06.237Z,3.76
2018-12-15T10:15:06.220Z,3.79
2018-12-15T10:16:06.202Z,3.75
2018-12-15T10:17:06.191Z,3.75
2018-12-15T10:18:06.168Z,3.66
2018-12-15T10:19:06.155Z,3.62
2018-12-15T10:20:06.139Z,3.5
2018-12-15T10:21:06.122Z,3.47
2018-12-15T10:22:06.115Z,3.51
2018-12-15T10:23:06.404Z,3.6
2018-12-15T10:24:06.083Z,3.57
2018-12-15T10:25:06.082Z,3.57
2018-12-15T10:26:06.058Z,3.58
2018-12-15T10:27:06.037Z,3.58
2018-12-15T10:28:06.032Z,3.66
2018-12-15T10:29:06.006Z,3.75
2018-12-15T10:30:05.989Z,3.7
2018-12-15T10:31:05.993Z,3.75
2018-12-15T10:32:05.957Z,3.8
2018-12-15T10:33:05.949Z,3.9
2018-12-15T10:34:05.928Z,3.88
2018-12-15T10:35:05.914Z,3.97
2018-12-15T10:36:05.904Z,4.06
2018-12-15T10:37:06.830Z,4.08
2018-12-15T10:38:05.869Z,4.02
2018-12-15T10:39:05.856Z,4.04
2018-12-15T10:40:05.843Z,4
2018-12-15T10:41:05.826Z,4.11
2018-12-15T10:42:05.810Z,4.02
2018-12-15T10:43:05.802Z,4
2018-12-15T10:44:05.782Z,4.05
2018-12-15T10:45:05.769Z,4.06
2018-12-15T10:46:05.755Z,4.05
2018-12-15T10:47:05.736Z,4.12
2018-12-15T10:48:05.729Z,4.12
2018-12-15T10:49:05.706Z,4.11
2018-12-15T10:50:05.694Z,3.96
2018-12-15T10:51:05.738Z,3.96
2018-12-15T10:52:05.670Z,3.98
2018-12-15T10:53:05.652Z,3.96
2018-12-15T10:54:05.634Z,4.04
2018-12-15T10:55:05.629Z,4
2018-12-15T10:56:05.607Z,3.94
2018-12-15T10:57:05.596Z,3.87
2018-12-15T10:58:05.581Z,3.73
2018-12-15T10:59:05.562Z,3.76
2018-12-15T11:00:05.552Z,3.73
2018-12-15T11:01:05.532Z,3.65
2018-12-15T11:02:05.517Z,3.54
2018-12-15T11:03:05.502Z,3.61
2018-12-15T11:04:05.710Z,3.68
2018-12-15T11:05:05.477Z,3.75
2018-12-15T11:06:05.458Z,3.72
2018-12-15T11:07:05.445Z,3.76
2018-12-15T11:08:05.441Z,3.75
2018-12-15T11:09:05.417Z,3.88
2018-12-15T11:10:05.400Z,3.83
2018-12-15T11:11:05.384Z,3.87
2018-12-15T11:12:05.372Z,3.96
2018-12-15T11:13:05.356Z,3.94
2018-12-15T11:14:05.349Z,3.93
2018-12-15T11:15:05.335Z,3.87
2018-12-15T11:16:05.317Z,3.9
2018-12-15T11:17:05.296Z,3.87
2018-12-15T11:18:05.282Z,3.96
2018-12-15T11:19:05.267Z,3.9
2018-12-15T11:20:05.256Z,3.96
2018-12-15T11:21:05.238Z,4.05
2018-12-15T11:22:05.227Z,4.05
2018-12-15T11:23:05.211Z,4.05
2018-12-15T11:24:05.197Z,4.16
2018-12-15T11:25:05.181Z,4.2
2018-12-15T11:26:05.169Z,4.23
2018-12-15T11:27:05.152Z,4.3
2018-12-15T11:28:05.137Z,4.22
2018-12-15T11:29:05.123Z,4.26
2018-12-15T11:30:05.106Z,4.27
2018-12-15T11:31:05.090Z,4.26
2018-12-15T11:32:05.077Z,4.29
2018-12-15T11:33:05.063Z,4.22
2018-12-15T11:34:05.050Z,4.29
2018-12-15T11:35:05.033Z,4.41
2018-12-15T11:36:05.094Z,4.41
2018-12-15T11:37:05.010Z,4.48
2018-12-15T11:38:04.988Z,4.54
2018-12-15T11:39:04.978Z,4.48
2018-12-15T11:40:04.963Z,4.54
2018-12-15T11:41:04.946Z,4.52
2018-12-15T11:42:04.952Z,4.58
2018-12-15T11:43:04.921Z,4.58
2018-12-15T11:44:04.662Z,4.6
2018-12-15T11:45:04.895Z,4.62
2018-12-15T11:46:04.885Z,4.58
2018-12-15T11:47:04.863Z,4.67
2018-12-15T11:48:04.851Z,4.66
2018-12-15T11:49:04.834Z,4.7
2018-12-15T11:50:04.873Z,4.72
2018-12-15T11:51:04.805Z,4.72
2018-12-15T11:52:04.793Z,4.69
2018-12-15T11:53:04.775Z,4.69
2018-12-15T11:54:04.761Z,4.5
2018-12-15T11:55:04.746Z,4.45
2018-12-15T11:56:04.729Z,4.37
2018-12-15T11:57:04.729Z,4.32
2018-12-15T11:58:04.705Z,4.3
2018-12-15T11:59:04.687Z,4.22
2018-12-15T12:00:04.671Z,4.29
2018-12-15T12:01:04.662Z,4.27
2018-12-15T12:02:04.647Z,4.33
2018-12-15T12:03:04.627Z,4.47
2018-12-15T12:04:04.652Z,4.51
2018-12-15T12:05:04.600Z,4.54
2018-12-15T12:06:04.597Z,4.4
2018-12-15T12:07:04.571Z,4.27
2018-12-15T12:08:04.563Z,4.26
2018-12-15T12:09:04.546Z,4.15
2018-12-15T12:10:04.533Z,4.15
2018-12-15T12:11:04.518Z,4.16
2018-12-15T12:12:04.502Z,4.12
2018-12-15T12:13:04.494Z,4.2
2018-12-15T12:14:05.254Z,4.15
2018-12-15T12:15:04.461Z,4.23
2018-12-15T12:16:04.446Z,4.18
2018-12-15T12:17:04.438Z,4.05
2018-12-15T12:18:04.177Z,4.2
2018-12-15T12:19:04.405Z,4.2
2018-12-15T12:20:04.391Z,4.2
2018-12-15T12:21:04.384Z,4.32
2018-12-15T12:22:04.357Z,4.41
2018-12-15T12:23:04.345Z,4.54
2018-12-15T12:24:04.094Z,4.5
2018-12-15T12:25:04.317Z,4.63
2018-12-15T12:26:04.303Z,4.6
2018-12-15T12:27:04.361Z,4.63
2018-12-15T12:28:04.273Z,4.55
2018-12-15T12:29:04.259Z,4.5
2018-12-15T12:30:04.271Z,4.51
2018-12-15T12:31:04.237Z,4.54
2018-12-15T12:32:04.221Z,4.5
2018-12-15T12:33:04.228Z,4.45
2018-12-15T12:34:04.189Z,4.36
2018-12-15T12:35:04.174Z,4.36
2018-12-15T12:36:04.164Z,4.5
2018-12-15T12:37:04.154Z,4.54
2018-12-15T12:38:04.134Z,4.54
2018-12-15T12:39:04.123Z,4.63
2018-12-15T12:40:04.106Z,4.52
2018-12-15T12:41:04.092Z,4.52
2018-12-15T12:42:04.075Z,4.58
2018-12-15T12:43:04.073Z,4.6
2018-12-15T12:44:04.048Z,4.47
2018-12-15T12:45:04.037Z,4.5
2018-12-15T12:46:04.028Z,4.42
2018-12-15T12:47:04.007Z,4.32
2018-12-15T12:48:03.992Z,4.27
2018-12-15T12:49:03.987Z,4.15
2018-12-15T12:50:03.977Z,4.11
2018-12-15T12:51:03.996Z,4.11
2018-12-15T12:52:03.938Z,4.11
2018-12-15T12:53:03.921Z,4.12
2018-12-15T12:54:03.916Z,4.09
2018-12-15T12:55:03.896Z,4.11
2018-12-15T12:56:03.880Z,4.06
2018-12-15T12:57:03.865Z,4.04
2018-12-15T12:58:03.847Z,4.04
2018-12-15T12:59:03.842Z,4.09
2018-12-15T13:00:03.822Z,3.97
2018-12-15T13:01:03.807Z,4.05
2018-12-15T13:02:03.793Z,4.06
2018-12-15T13:03:03.782Z,4.05
2018-12-15T13:04:03.765Z,4.14
2018-12-15T13:05:03.749Z,4.11
2018-12-15T13:06:03.737Z,4.22
2018-12-15T13:07:03.725Z,4.22
2018-12-15T13:08:03.709Z,4.23
2018-12-15T13:09:03.690Z,4.15
2018-12-15T13:10:03.677Z,4.08
2018-12-15T13:11:03.668Z,4.09
2018-12-15T13:12:03.648Z,4.14
2018-12-15T13:13:03.634Z,4.12
2018-12-15T13:14:03.619Z,4
2018-12-15T13:15:03.605Z,4.06
2018-12-15T13:16:03.594Z,3.9
2018-12-15T13:17:03.577Z,3.97
2018-12-15T13:18:03.566Z,3.93
2018-12-15T13:19:03.549Z,3.94
2018-12-15T13:20:08.515Z,3.94
2018-12-15T13:21:03.519Z,3.93
2018-12-15T13:22:03.505Z,4.08